Time,TemperatureF,DewpointF,PressureIn,WindDirection,WindDirectionDegrees,WindSpeedMPH,WindSpeedGustMPH,Humidity,HourlyPrecipIn,Conditions,Clouds,dailyrainin,SolarRadiationWatts/m^2,SoftwareType,DateUTC
2013-03-09 00:02:00,41.0,37.0,-100.00,SE,142,8.0,16.0,86,0.01,,,0.01,0.000000,,2013-03-09 06:02:00,
2013-03-09 00:11:00,39.0,38.0,-100.00,SE,134,8.0,13.0,95,0.05,,,0.06,0.000000,,2013-03-09 06:11:00,
2013-03-09 00:32:00,39.0,38.0,-100.00,SE,134,8.0,13.0,95,0.05,,,0.06,0.000000,,2013-03-09 06:32:00,
2013-03-09 00:42:00,39.0,38.0,-100.00,SE,134,8.0,13.0,95,0.05,,,0.06,0.000000,,2013-03-09 06:42:00,
2013-03-09 00:52:00,39.0,38.0,-100.00,SE,134,8.0,13.0,95,0.05,,,0.06,0.000000,,2013-03-09 06:52:00,
2013-03-09 01:01:00,39.0,38.0,-100.00,SE,134,8.0,13.0,95,0.05,,,0.06,0.000000,,2013-03-09 07:01:00,
2013-03-09 01:11:00,40.0,40.0,-100.00,SE,139,8.0,15.0,100,0.16,,,0.22,0.000000,,2013-03-09 07:11:00,
2013-03-09 01:32:00,40.0,40.0,-100.00,SE,139,8.0,15.0,100,0.16,,,0.22,0.000000,,2013-03-09 07:32:00,
2013-03-09 01:42:00,40.0,40.0,-100.00,SE,139,8.0,15.0,100,0.16,,,0.22,0.000000,,2013-03-09 07:42:00,
2013-03-09 01:52:00,40.0,40.0,-100.00,SE,139,8.0,15.0,100,0.16,,,0.22,0.000000,,2013-03-09 07:52:00,
2013-03-09 02:01:00,40.0,40.0,-100.00,SE,139,8.0,15.0,100,0.16,,,0.22,0.000000,,2013-03-09 08:01:00,
2013-03-09 02:11:00,40.0,40.0,-100.00,SE,138,5.0,14.0,99,0.00,,,0.22,0.000000,,2013-03-09 08:11:00,
2013-03-09 02:42:00,40.0,40.0,-100.00,SE,138,5.0,14.0,99,0.00,,,0.22,0.000000,,2013-03-09 08:42:00,
2013-03-09 02:52:00,40.0,40.0,-100.00,SE,138,5.0,14.0,99,0.00,,,0.22,0.000000,,2013-03-09 08:52:00,
2013-03-09 03:02:00,40.0,40.0,-100.00,SE,138,5.0,14.0,99,0.00,,,0.22,0.000000,,2013-03-09 09:02:00,
2013-03-09 03:11:00,40.0,40.0,-100.00,SSE,150,6.0,11.0,99,0.00,,,0.22,0.000000,,2013-03-09 09:11:00,
2013-03-09 03:32:00,40.0,40.0,-100.00,SSE,150,6.0,11.0,99,0.00,,,0.22,0.000000,,2013-03-09 09:32:00,
2013-03-09 03:42:00,40.0,40.0,-100.00,SSE,150,6.0,11.0,99,0.00,,,0.22,0.000000,,2013-03-09 09:42:00,
2013-03-09 03:52:00,40.0,40.0,-100.00,SSE,150,6.0,11.0,99,0.00,,,0.22,0.000000,,2013-03-09 09:52:00,
2013-03-09 04:01:00,40.0,40.0,-100.00,SSE,150,6.0,11.0,99,0.00,,,0.22,0.000000,,2013-03-09 10:01:00,
2013-03-09 04:11:00,41.0,41.0,-100.00,SE,134,11.0,18.0,100,0.01,,,0.23,0.000000,,2013-03-09 10:11:00,
2013-03-09 04:42:00,41.0,41.0,-100.00,SE,134,11.0,18.0,100,0.01,,,0.23,0.000000,,2013-03-09 10:42:00,
2013-03-09 04:52:00,41.0,41.0,-100.00,SE,134,11.0,18.0,100,0.01,,,0.23,0.000000,,2013-03-09 10:52:00,
2013-03-09 05:01:00,41.0,41.0,-100.00,SE,134,11.0,18.0,100,0.01,,,0.23,0.000000,,2013-03-09 11:01:00,
2013-03-09 05:11:00,41.0,40.0,-100.00,SE,130,11.0,18.0,97,0.00,,,0.23,0.000000,,2013-03-09 11:11:00,
2013-03-09 05:32:00,41.0,40.0,-100.00,SE,130,11.0,18.0,97,0.00,,,0.23,0.000000,,2013-03-09 11:32:00,
2013-03-09 05:42:00,41.0,40.0,-100.00,SE,130,11.0,18.0,97,0.00,,,0.23,0.000000,,2013-03-09 11:42:00,
2013-03-09 05:52:00,41.0,40.0,-100.00,SE,130,11.0,18.0,97,0.00,,,0.23,0.000000,,2013-03-09 11:52:00,
2013-03-09 06:01:00,41.0,40.0,-100.00,SE,130,11.0,18.0,97,0.00,,,0.23,0.000000,,2013-03-09 12:01:00,
2013-03-09 06:11:00,41.0,41.0,-100.00,SE,134,8.0,15.0,100,0.00,,,0.23,0.000000,,2013-03-09 12:11:00,
2013-03-09 06:32:00,41.0,41.0,-100.00,SE,134,8.0,15.0,100,0.00,,,0.23,0.000000,,2013-03-09 12:32:00,
2013-03-09 06:42:00,41.0,41.0,-100.00,SE,134,8.0,15.0,100,0.00,,,0.23,0.000000,,2013-03-09 12:42:00,
2013-03-09 06:52:00,41.0,41.0,-100.00,SE,134,8.0,15.0,100,0.00,,,0.23,0.000000,,2013-03-09 12:52:00,
2013-03-09 07:02:00,41.0,41.0,-100.00,SE,134,8.0,15.0,100,0.00,,,0.23,0.000000,,2013-03-09 13:02:00,
2013-03-09 07:11:00,41.0,41.0,-100.00,SE,130,8.0,17.0,100,0.12,,,0.35,0.000000,,2013-03-09 13:11:00,
2013-03-09 07:32:00,41.0,41.0,-100.00,SE,130,8.0,17.0,100,0.12,,,0.35,0.000000,,2013-03-09 13:32:00,
2013-03-09 07:42:00,41.0,41.0,-100.00,SE,130,8.0,17.0,100,0.12,,,0.35,0.000000,,2013-03-09 13:42:00,
2013-03-09 07:52:00,41.0,41.0,-100.00,SE,130,8.0,17.0,100,0.12,,,0.35,0.000000,,2013-03-09 13:52:00,
2013-03-09 08:01:00,41.0,41.0,-100.00,SE,130,8.0,17.0,100,0.12,,,0.35,0.000000,,2013-03-09 14:01:00,
2013-03-09 08:11:00,42.0,42.0,-100.00,SE,146,8.0,15.0,100,0.01,,,0.36,8.000000,,2013-03-09 14:11:00,
2013-03-09 08:32:00,42.0,42.0,-100.00,SE,146,8.0,15.0,100,0.01,,,0.36,8.000000,,2013-03-09 14:32:00,
2013-03-09 08:42:00,42.0,42.0,-100.00,SE,146,8.0,15.0,100,0.01,,,0.36,8.000000,,2013-03-09 14:42:00,
2013-03-09 08:52:00,42.0,42.0,-100.00,SE,146,8.0,15.0,100,0.01,,,0.36,8.000000,,2013-03-09 14:52:00,
2013-03-09 09:02:00,42.0,42.0,-100.00,SE,146,8.0,15.0,100,0.01,,,0.36,8.000000,,2013-03-09 15:02:00,
2013-03-09 09:11:00,42.0,41.0,-100.00,SSE,147,8.0,18.0,97,0.00,,,0.36,13.000000,,2013-03-09 15:11:00,
2013-03-09 09:32:00,42.0,41.0,-100.00,SSE,147,8.0,18.0,97,0.00,,,0.36,13.000000,,2013-03-09 15:32:00,
2013-03-09 09:42:00,42.0,41.0,-100.00,SSE,147,8.0,18.0,97,0.00,,,0.36,13.000000,,2013-03-09 15:42:00,
2013-03-09 09:52:00,42.0,41.0,-100.00,SSE,147,8.0,18.0,97,0.00,,,0.36,13.000000,,2013-03-09 15:52:00,
2013-03-09 10:01:00,42.0,41.0,-100.00,SSE,147,8.0,18.0,97,0.00,,,0.36,13.000000,,2013-03-09 16:01:00,
2013-03-09 10:11:00,42.0,42.0,-100.00,SE,145,8.0,13.0,100,0.13,,,0.49,15.000000,,2013-03-09 16:11:00,
2013-03-09 10:32:00,42.0,42.0,-100.00,SE,145,8.0,13.0,100,0.13,,,0.49,15.000000,,2013-03-09 16:32:00,
2013-03-09 10:42:00,42.0,42.0,-100.00,SE,145,8.0,13.0,100,0.13,,,0.49,15.000000,,2013-03-09 16:42:00,
2013-03-09 10:52:00,42.0,42.0,-100.00,SE,145,8.0,13.0,100,0.13,,,0.49,15.000000,,2013-03-09 16:52:00,
2013-03-09 11:01:00,42.0,42.0,-100.00,SE,145,8.0,13.0,100,0.13,,,0.49,15.000000,,2013-03-09 17:01:00,
2013-03-09 11:11:00,43.0,43.0,-100.00,SSE,160,4.0,15.0,100,0.02,,,0.51,52.000000,,2013-03-09 17:11:00,
2013-03-09 11:32:00,43.0,43.0,-100.00,SSE,160,4.0,15.0,100,0.02,,,0.51,52.000000,,2013-03-09 17:32:00,
2013-03-09 11:42:00,43.0,43.0,-100.00,SSE,160,4.0,15.0,100,0.02,,,0.51,52.000000,,2013-03-09 17:42:00,
2013-03-09 11:52:00,43.0,43.0,-100.00,SSE,160,4.0,15.0,100,0.02,,,0.51,52.000000,,2013-03-09 17:52:00,
2013-03-09 12:01:00,43.0,43.0,-100.00,SSE,160,4.0,15.0,100,0.02,,,0.51,52.000000,,2013-03-09 18:01:00,
2013-03-09 12:11:00,44.0,43.0,-100.00,WNW,294,7.0,12.0,95,0.00,,,0.51,96.000000,,2013-03-09 18:11:00,
2013-03-09 12:32:00,44.0,43.0,-100.00,WNW,294,7.0,12.0,95,0.00,,,0.51,96.000000,,2013-03-09 18:32:00,
2013-03-09 12:42:00,44.0,43.0,-100.00,WNW,294,7.0,12.0,95,0.00,,,0.51,96.000000,,2013-03-09 18:42:00,
2013-03-09 12:52:00,44.0,43.0,-100.00,WNW,294,7.0,12.0,95,0.00,,,0.51,96.000000,,2013-03-09 18:52:00,
2013-03-09 13:01:00,44.0,43.0,-100.00,WNW,294,7.0,12.0,95,0.00,,,0.51,96.000000,,2013-03-09 19:01:00,
2013-03-09 13:11:00,41.0,41.0,-100.00,NNE,19,10.0,13.0,100,0.00,,,0.51,37.000000,,2013-03-09 19:11:00,
2013-03-09 13:42:00,41.0,41.0,-100.00,NNE,19,10.0,13.0,100,0.00,,,0.51,37.000000,,2013-03-09 19:42:00,
2013-03-09 13:52:00,41.0,41.0,-100.00,NNE,19,10.0,13.0,100,0.00,,,0.51,37.000000,,2013-03-09 19:52:00,
2013-03-09 14:01:00,41.0,41.0,-100.00,NNE,19,10.0,13.0,100,0.00,,,0.51,37.000000,,2013-03-09 20:01:00,
2013-03-09 14:11:00,41.0,41.0,-100.00,ENE,74,8.0,13.0,100,0.00,,,0.51,44.000000,,2013-03-09 20:11:00,
2013-03-09 14:32:00,41.0,41.0,-100.00,ENE,74,8.0,13.0,100,0.00,,,0.51,44.000000,,2013-03-09 20:32:00,
2013-03-09 14:42:00,41.0,41.0,-100.00,ENE,74,8.0,13.0,100,0.00,,,0.51,44.000000,,2013-03-09 20:42:00,
2013-03-09 14:52:00,41.0,41.0,-100.00,ENE,74,8.0,13.0,100,0.00,,,0.51,44.000000,,2013-03-09 20:52:00,
2013-03-09 15:02:00,41.0,41.0,-100.00,ENE,74,8.0,13.0,100,0.00,,,0.51,44.000000,,2013-03-09 21:02:00,
2013-03-09 15:11:00,41.0,41.0,-100.00,NE,50,8.0,10.0,100,0.00,,,0.51,43.000000,,2013-03-09 21:11:00,
2013-03-09 15:32:00,41.0,41.0,-100.00,NE,50,8.0,10.0,100,0.00,,,0.51,43.000000,,2013-03-09 21:32:00,
2013-03-09 15:42:00,41.0,41.0,-100.00,NE,50,8.0,10.0,100,0.00,,,0.51,43.000000,,2013-03-09 21:42:00,
2013-03-09 15:52:00,41.0,41.0,-100.00,NE,50,8.0,10.0,100,0.00,,,0.51,43.000000,,2013-03-09 21:52:00,
2013-03-09 16:01:00,41.0,41.0,-100.00,NE,50,8.0,10.0,100,0.00,,,0.51,43.000000,,2013-03-09 22:01:00,
2013-03-09 16:11:00,41.0,41.0,-100.00,NW,320,4.0,12.0,100,0.00,,,0.51,27.000000,,2013-03-09 22:11:00,
2013-03-09 16:42:00,41.0,41.0,-100.00,NW,320,4.0,12.0,100,0.00,,,0.51,27.000000,,2013-03-09 22:42:00,
2013-03-09 16:52:00,41.0,41.0,-100.00,NW,320,4.0,12.0,100,0.00,,,0.51,27.000000,,2013-03-09 22:52:00,
2013-03-09 17:01:00,41.0,41.0,-100.00,NW,320,4.0,12.0,100,0.00,,,0.51,27.000000,,2013-03-09 23:01:00,
2013-03-09 17:11:00,39.0,39.0,-100.00,NW,321,11.0,16.0,100,0.00,,,0.51,14.000000,,2013-03-09 23:11:00,
2013-03-09 17:32:00,39.0,39.0,-100.00,NW,321,11.0,16.0,100,0.00,,,0.51,14.000000,,2013-03-09 23:32:00,
2013-03-09 17:42:00,39.0,39.0,-100.00,NW,321,11.0,16.0,100,0.00,,,0.51,14.000000,,2013-03-09 23:42:00,
2013-03-09 17:52:00,39.0,39.0,-100.00,NW,321,11.0,16.0,100,0.00,,,0.51,14.000000,,2013-03-09 23:52:00,
2013-03-09 18:01:00,39.0,39.0,-100.00,NW,321,11.0,16.0,100,0.00,,,0.51,14.000000,,2013-03-10 00:01:00,
2013-03-09 18:11:00,38.0,38.0,-100.00,NW,319,10.0,17.0,100,0.06,,,0.57,3.000000,,2013-03-10 00:11:00,
2013-03-09 18:32:00,38.0,38.0,-100.00,NW,319,10.0,17.0,100,0.06,,,0.57,3.000000,,2013-03-10 00:32:00,
2013-03-09 18:43:00,38.0,38.0,-100.00,NW,319,10.0,17.0,100,0.06,,,0.57,3.000000,,2013-03-10 00:43:00,
2013-03-09 18:52:00,38.0,38.0,-100.00,NW,319,10.0,17.0,100,0.06,,,0.57,3.000000,,2013-03-10 00:52:00,
2013-03-09 19:01:00,38.0,38.0,-100.00,NW,319,10.0,17.0,100,0.06,,,0.57,3.000000,,2013-03-10 01:01:00,
2013-03-09 19:11:00,36.0,36.0,-100.00,NNW,344,11.0,23.0,100,0.20,,,-99.99,0.000000,,2013-03-10 01:11:00,
2013-03-09 19:32:00,36.0,36.0,-100.00,NNW,344,11.0,23.0,100,0.20,,,-99.99,0.000000,,2013-03-10 01:32:00,
2013-03-09 19:42:00,36.0,36.0,-100.00,NNW,344,11.0,23.0,100,0.20,,,-99.99,0.000000,,2013-03-10 01:42:00,
2013-03-09 19:52:00,36.0,36.0,-100.00,NNW,344,11.0,23.0,100,0.20,,,-99.99,0.000000,,2013-03-10 01:52:00,
2013-03-09 20:01:00,36.0,36.0,-100.00,NNW,344,11.0,23.0,100,0.20,,,-99.99,0.000000,,2013-03-10 02:01:00,
2013-03-09 20:11:00,34.0,34.0,-100.00,North,355,9.0,21.0,100,0.04,,,-99.99,0.000000,,2013-03-10 02:11:00,
2013-03-09 20:42:00,34.0,34.0,-100.00,North,355,9.0,21.0,100,0.04,,,-99.99,0.000000,,2013-03-10 02:42:00,
2013-03-09 20:52:00,34.0,34.0,-100.00,North,355,9.0,21.0,100,0.04,,,-99.99,0.000000,,2013-03-10 02:52:00,
2013-03-09 21:02:00,34.0,34.0,-100.00,North,355,9.0,21.0,100,0.04,,,-99.99,0.000000,,2013-03-10 03:02:00,
2013-03-09 21:11:00,33.0,33.0,-100.00,NNW,342,10.0,20.0,99,0.02,,,0.83,0.000000,,2013-03-10 03:11:00,
2013-03-09 21:32:00,33.0,33.0,-100.00,NNW,342,10.0,20.0,99,0.02,,,0.83,0.000000,,2013-03-10 03:32:00,
2013-03-09 21:42:00,33.0,33.0,-100.00,NNW,342,10.0,20.0,99,0.02,,,0.83,0.000000,,2013-03-10 03:42:00,
2013-03-09 21:52:00,33.0,33.0,-100.00,NNW,342,10.0,20.0,99,0.02,,,0.83,0.000000,,2013-03-10 03:52:00,
2013-03-09 22:01:00,33.0,33.0,-100.00,NNW,342,10.0,20.0,99,0.02,,,0.83,0.000000,,2013-03-10 04:01:00,
2013-03-09 22:11:00,32.0,32.0,-100.00,North,349,8.0,20.0,100,0.00,,,0.83,0.000000,,2013-03-10 04:11:00,
2013-03-09 22:32:00,32.0,32.0,-100.00,North,349,8.0,20.0,100,0.00,,,0.83,0.000000,,2013-03-10 04:32:00,
2013-03-09 22:42:00,32.0,32.0,-100.00,North,349,8.0,20.0,100,0.00,,,0.83,0.000000,,2013-03-10 04:42:00,
2013-03-09 22:52:00,32.0,32.0,-100.00,North,349,8.0,20.0,100,0.00,,,0.83,0.000000,,2013-03-10 04:52:00,
2013-03-09 23:01:00,32.0,32.0,-100.00,North,349,8.0,20.0,100,0.00,,,0.83,0.000000,,2013-03-10 05:01:00,
2013-03-09 23:11:00,32.0,32.0,-100.00,North,356,7.0,20.0,100,0.00,,,0.82,0.000000,,2013-03-10 05:11:00,
2013-03-09 23:32:00,32.0,32.0,-100.00,North,356,7.0,20.0,100,0.00,,,0.82,0.000000,,2013-03-10 05:32:00,
2013-03-09 23:42:00,32.0,32.0,-100.00,North,356,7.0,20.0,100,0.00,,,0.82,0.000000,,2013-03-10 05:42:00,
2013-03-09 23:52:00,32.0,32.0,-100.00,North,356,7.0,20.0,100,0.00,,,0.82,0.000000,,2013-03-10 05:52:00,